CYLD

Details ICAO CYLD (YLD)
Name CHAPLEAU
Region Canada
Timezone America/Toronto (UTC-4.0)
Plans Departing 1
Arriving 3
Stats Elevation 1,470 ft / 448 m (AMSL)
Location 47.820903° -83.349792°
Runways 2
Magnetic Variation 8.699° W
Sunrise 2018-05-23 09:47:39 UTC / 2018-05-23 05:47:39 Local
Sunset 2018-05-24 01:15:33 UTC / 2018-05-23 21:15:33 Local
Advertisement - Login to hide

Runways

ID Width Length Bearing (true) Bearing (mag) Surface Threshold Offset Overrun Length
05 75 ft / 23 m 3,011 ft / 918 m 39.26° 47.96° Asphalt 0 ft / 0 m 0 ft / 0 m
10 100 ft / 30 m 4,972 ft / 1,516 m 92.33° 101.03° Asphalt 0 ft / 0 m 0 ft / 0 m
23 75 ft / 23 m 3,011 ft / 918 m 219.27° 227.97° Asphalt 0 ft / 0 m 0 ft / 0 m
28 100 ft / 30 m 4,972 ft / 1,516 m 272.34° 281.04° Asphalt 0 ft / 0 m 0 ft / 0 m

Map

Weather


0- 5 10 15 20 25 30 35+ Temperature / ° C

Clouds and Precipitation
Forecast for 2018-05-23 18:00 UTC. Updated 2 hours ago

Ground ~20,000 ft ~40,000 ft Winds

METAR

CYLD 231900Z 02007KT 15SM SCT180 OVC260 22/03 A3012 RMK AC3CS5 SLP207 DENSITY ALT 2400FT

TAF

TAF CYLD 231338Z 2314/2401 08006KT P6SM SKC BECMG 2314/2316 33006KT BECMG 2322/2324 VRB03KT RMK NXT FCST BY 232000Z

Frequencies

Unicom 122.80 MHz CTAF/UNICOM
Warning: Do not use this data for real-world aviation or navigation. No guarantee of current accuracy is given.